sensor_id;sensor_type;location;lat;lon;timestamp;P1;durP1;ratioP1;P2;durP2;ratioP2
57047;SDS011;42934;54.294;18.598;2023-06-04T15:59:10;2.92;;;1.20;;
57047;SDS011;42934;54.294;18.598;2023-06-04T16:01:40;3.00;;;0.70;;
57047;SDS011;42934;54.294;18.598;2023-06-04T16:04:12;3.65;;;0.90;;
57047;SDS011;42934;54.294;18.598;2023-06-04T16:06:42;3.17;;;2.00;;
57047;SDS011;42934;54.294;18.598;2023-06-04T16:09:12;2.95;;;2.42;;
57047;SDS011;42934;54.294;18.598;2023-06-04T16:11:41;1.88;;;1.75;;
57047;SDS011;42934;54.294;18.598;2023-06-04T16:14:13;3.35;;;2.00;;
57047;SDS011;42934;54.294;18.598;2023-06-04T16:16:43;4.63;;;1.73;;
57047;SDS011;42934;54.294;18.598;2023-06-04T16:19:14;1.60;;;1.08;;
57047;SDS011;42934;54.294;18.598;2023-06-04T16:21:44;3.95;;;0.82;;
57047;SDS011;42934;54.294;18.598;2023-06-04T16:24:13;2.83;;;0.82;;
57047;SDS011;42934;54.294;18.598;2023-06-04T16:26:45;2.67;;;0.75;;
57047;SDS011;42934;54.294;18.598;2023-06-04T16:29:16;2.27;;;1.17;;
57047;SDS011;42934;54.294;18.598;2023-06-04T16:31:45;1.08;;;0.80;;
57047;SDS011;42934;54.294;18.598;2023-06-04T16:36:45;1.05;;;0.70;;
57047;SDS011;42934;54.294;18.598;2023-06-04T16:39:14;4.43;;;3.50;;
57047;SDS011;42934;54.294;18.598;2023-06-04T16:41:44;3.97;;;1.33;;
57047;SDS011;42934;54.294;18.598;2023-06-04T16:44:16;4.35;;;1.05;;
57047;SDS011;42934;54.294;18.598;2023-06-04T16:46:48;5.13;;;1.10;;
57047;SDS011;42934;54.294;18.598;2023-06-04T16:49:17;4.93;;;1.13;;
57047;SDS011;42934;54.294;18.598;2023-06-04T16:51:46;2.47;;;1.10;;
57047;SDS011;42934;54.294;18.598;2023-06-04T16:54:15;13.32;;;1.90;;
57047;SDS011;42934;54.294;18.598;2023-06-04T16:56:46;73.53;;;3.17;;
57047;SDS011;42934;54.294;18.598;2023-06-04T16:59:16;1.83;;;1.00;;
57047;SDS011;42934;54.294;18.598;2023-06-04T17:01:46;17.92;;;1.60;;
57047;SDS011;42934;54.294;18.598;2023-06-04T17:04:15;137.30;;;3.67;;
57047;SDS011;42934;54.294;18.598;2023-06-04T17:06:44;81.85;;;2.65;;
57047;SDS011;42934;54.294;18.598;2023-06-04T17:09:13;31.87;;;1.27;;
57047;SDS011;42934;54.294;18.598;2023-06-04T17:11:43;8.00;;;0.90;;
57047;SDS011;42934;54.294;18.598;2023-06-04T17:14:12;13.23;;;1.10;;
57047;SDS011;42934;54.294;18.598;2023-06-04T17:16:43;1.13;;;0.60;;
57047;SDS011;42934;54.294;18.598;2023-06-04T17:19:13;5.63;;;0.82;;
57047;SDS011;42934;54.294;18.598;2023-06-04T17:21:43;1.88;;;0.60;;
57047;SDS011;42934;54.294;18.598;2023-06-04T17:24:12;6.80;;;0.90;;
57047;SDS011;42934;54.294;18.598;2023-06-04T17:26:41;16.30;;;1.00;;
57047;SDS011;42934;54.294;18.598;2023-06-04T17:29:11;7.72;;;1.00;;
57047;SDS011;42934;54.294;18.598;2023-06-04T17:31:40;0.70;;;0.70;;
57047;SDS011;42934;54.294;18.598;2023-06-04T17:34:11;10.63;;;1.15;;
57047;SDS011;42934;54.294;18.598;2023-06-04T17:36:40;5.35;;;0.95;;
57047;SDS011;42934;54.294;18.598;2023-06-04T17:39:10;0.93;;;0.70;;
57047;SDS011;42934;54.294;18.598;2023-06-04T17:41:42;0.88;;;0.60;;
57047;SDS011;42934;54.294;18.598;2023-06-04T17:44:11;2.63;;;0.70;;
57047;SDS011;42934;54.294;18.598;2023-06-04T17:46:40;0.90;;;0.50;;
57047;SDS011;42934;54.294;18.598;2023-06-04T17:49:12;8.55;;;1.30;;
57047;SDS011;42934;54.294;18.598;2023-06-04T17:51:43;16.13;;;2.20;;
57047;SDS011;42934;54.294;18.598;2023-06-04T17:54:12;7.57;;;0.80;;
57047;SDS011;42934;54.294;18.598;2023-06-04T17:56:43;24.33;;;1.75;;
57047;SDS011;42934;54.294;18.598;2023-06-04T17:59:12;16.02;;;1.23;;
57047;SDS011;42934;54.294;18.598;2023-06-04T18:01:43;12.10;;;1.45;;
57047;SDS011;42934;54.294;18.598;2023-06-04T18:04:14;2.15;;;0.80;;
57047;SDS011;42934;54.294;18.598;2023-06-04T18:06:45;4.82;;;1.10;;
57047;SDS011;42934;54.294;18.598;2023-06-04T18:09:15;4.45;;;1.30;;
57047;SDS011;42934;54.294;18.598;2023-06-04T18:11:45;4.88;;;1.42;;
57047;SDS011;42934;54.294;18.598;2023-06-04T18:14:14;10.00;;;1.55;;
57047;SDS011;42934;54.294;18.598;2023-06-04T18:16:45;6.07;;;1.08;;
57047;SDS011;42934;54.294;18.598;2023-06-04T18:19:14;8.60;;;1.10;;
57047;SDS011;42934;54.294;18.598;2023-06-04T18:21:48;6.25;;;0.98;;
57047;SDS011;42934;54.294;18.598;2023-06-04T18:24:18;1.10;;;0.82;;
57047;SDS011;42934;54.294;18.598;2023-06-04T18:26:48;1.40;;;1.10;;
57047;SDS011;42934;54.294;18.598;2023-06-04T18:29:17;3.70;;;0.95;;
57047;SDS011;42934;54.294;18.598;2023-06-04T18:36:48;3.45;;;1.10;;
57047;SDS011;42934;54.294;18.598;2023-06-04T18:39:20;2.05;;;1.00;;
57047;SDS011;42934;54.294;18.598;2023-06-04T18:41:49;1.65;;;0.80;;
57047;SDS011;42934;54.294;18.598;2023-06-04T18:44:21;3.25;;;1.13;;
57047;SDS011;42934;54.294;18.598;2023-06-04T18:46:52;1.25;;;1.00;;
57047;SDS011;42934;54.294;18.598;2023-06-04T18:49:21;1.35;;;1.00;;
57047;SDS011;42934;54.294;18.598;2023-06-04T18:51:51;1.02;;;0.80;;
57047;SDS011;42934;54.294;18.598;2023-06-04T18:54:20;2.08;;;1.40;;
57047;SDS011;42934;54.294;18.598;2023-06-04T18:56:50;4.78;;;4.07;;
57047;SDS011;42934;54.294;18.598;2023-06-04T18:59:19;5.75;;;5.15;;
57047;SDS011;42934;54.294;18.598;2023-06-04T19:01:48;8.55;;;6.25;;
57047;SDS011;42934;54.294;18.598;2023-06-04T19:04:19;5.37;;;4.67;;
57047;SDS011;42934;54.294;18.598;2023-06-04T19:06:48;3.75;;;2.97;;
57047;SDS011;42934;54.294;18.598;2023-06-04T19:09:18;3.10;;;2.60;;
57047;SDS011;42934;54.294;18.598;2023-06-04T19:11:47;3.63;;;2.00;;
57047;SDS011;42934;54.294;18.598;2023-06-04T19:14:16;2.13;;;1.58;;
57047;SDS011;42934;54.294;18.598;2023-06-04T19:16:46;3.25;;;1.80;;
57047;SDS011;42934;54.294;18.598;2023-06-04T19:19:19;4.63;;;2.60;;
57047;SDS011;42934;54.294;18.598;2023-06-04T19:21:49;6.78;;;3.42;;
57047;SDS011;42934;54.294;18.598;2023-06-04T19:24:19;6.93;;;3.60;;
57047;SDS011;42934;54.294;18.598;2023-06-04T19:26:49;10.10;;;3.70;;
57047;SDS011;42934;54.294;18.598;2023-06-04T19:29:18;7.65;;;3.75;;
57047;SDS011;42934;54.294;18.598;2023-06-04T19:31:47;5.18;;;2.97;;
57047;SDS011;42934;54.294;18.598;2023-06-04T19:34:17;5.50;;;2.67;;
57047;SDS011;42934;54.294;18.598;2023-06-04T19:36:49;4.78;;;2.42;;
57047;SDS011;42934;54.294;18.598;2023-06-04T19:39:19;5.18;;;2.28;;
57047;SDS011;42934;54.294;18.598;2023-06-04T19:41:48;4.77;;;2.80;;
57047;SDS011;42934;54.294;18.598;2023-06-04T19:44:17;5.18;;;3.10;;
57047;SDS011;42934;54.294;18.598;2023-06-04T19:46:46;6.03;;;3.00;;
57047;SDS011;42934;54.294;18.598;2023-06-04T19:49:16;6.97;;;2.83;;
57047;SDS011;42934;54.294;18.598;2023-06-04T19:51:48;6.05;;;3.20;;
57047;SDS011;42934;54.294;18.598;2023-06-04T19:54:17;5.32;;;2.90;;
57047;SDS011;42934;54.294;18.598;2023-06-04T19:56:46;5.85;;;2.65;;
57047;SDS011;42934;54.294;18.598;2023-06-04T19:59:15;5.88;;;2.78;;
57047;SDS011;42934;54.294;18.598;2023-06-04T20:01:45;4.75;;;2.50;;
57047;SDS011;42934;54.294;18.598;2023-06-04T20:04:14;4.47;;;2.60;;
57047;SDS011;42934;54.294;18.598;2023-06-04T20:06:44;6.40;;;2.60;;
57047;SDS011;42934;54.294;18.598;2023-06-04T20:09:14;5.97;;;2.33;;
57047;SDS011;42934;54.294;18.598;2023-06-04T20:11:45;3.42;;;2.40;;
57047;SDS011;42934;54.294;18.598;2023-06-04T20:14:14;5.72;;;2.78;;
57047;SDS011;42934;54.294;18.598;2023-06-04T20:16:43;5.43;;;2.60;;
57047;SDS011;42934;54.294;18.598;2023-06-04T20:19:12;2.10;;;1.65;;
57047;SDS011;42934;54.294;18.598;2023-06-04T20:21:42;3.20;;;1.70;;
57047;SDS011;42934;54.294;18.598;2023-06-04T20:24:11;3.58;;;1.95;;
57047;SDS011;42934;54.294;18.598;2023-06-04T20:26:43;8.45;;;3.65;;
57047;SDS011;42934;54.294;18.598;2023-06-04T20:29:12;10.45;;;4.40;;
57047;SDS011;42934;54.294;18.598;2023-06-04T20:31:42;7.63;;;3.90;;
57047;SDS011;42934;54.294;18.598;2023-06-04T20:34:12;8.48;;;3.60;;
57047;SDS011;42934;54.294;18.598;2023-06-04T20:36:42;5.45;;;2.47;;
57047;SDS011;42934;54.294;18.598;2023-06-04T20:39:11;7.10;;;2.53;;
57047;SDS011;42934;54.294;18.598;2023-06-04T20:41:43;7.25;;;2.03;;
57047;SDS011;42934;54.294;18.598;2023-06-04T20:44:12;2.22;;;1.70;;
57047;SDS011;42934;54.294;18.598;2023-06-04T20:46:42;5.18;;;2.45;;
57047;SDS011;42934;54.294;18.598;2023-06-04T20:49:11;5.70;;;2.33;;
57047;SDS011;42934;54.294;18.598;2023-06-04T20:51:40;5.03;;;2.20;;
57047;SDS011;42934;54.294;18.598;2023-06-04T20:54:10;8.50;;;2.55;;
57047;SDS011;42934;54.294;18.598;2023-06-04T20:56:40;8.40;;;2.67;;
57047;SDS011;42934;54.294;18.598;2023-06-04T20:59:12;7.38;;;2.47;;
57047;SDS011;42934;54.294;18.598;2023-06-04T21:01:42;12.15;;;2.90;;
57047;SDS011;42934;54.294;18.598;2023-06-04T21:04:12;7.43;;;2.63;;
57047;SDS011;42934;54.294;18.598;2023-06-04T21:06:42;7.85;;;3.00;;
57047;SDS011;42934;54.294;18.598;2023-06-04T21:09:11;6.45;;;2.17;;
57047;SDS011;42934;54.294;18.598;2023-06-04T21:11:41;7.40;;;2.65;;
57047;SDS011;42934;54.294;18.598;2023-06-04T21:14:11;6.05;;;3.05;;
57047;SDS011;42934;54.294;18.598;2023-06-04T21:16:41;5.70;;;2.40;;
57047;SDS011;42934;54.294;18.598;2023-06-04T21:19:10;8.80;;;2.33;;
57047;SDS011;42934;54.294;18.598;2023-06-04T21:21:39;4.57;;;2.47;;
57047;SDS011;42934;54.294;18.598;2023-06-04T21:24:08;8.93;;;2.50;;
57047;SDS011;42934;54.294;18.598;2023-06-04T21:26:38;5.93;;;1.58;;
57047;SDS011;42934;54.294;18.598;2023-06-04T21:29:08;5.13;;;1.95;;
57047;SDS011;42934;54.294;18.598;2023-06-04T21:31:38;6.97;;;2.03;;
57047;SDS011;42934;54.294;18.598;2023-06-04T21:34:07;5.93;;;1.65;;
57047;SDS011;42934;54.294;18.598;2023-06-04T21:36:37;5.05;;;2.20;;
57047;SDS011;42934;54.294;18.598;2023-06-04T21:39:06;5.95;;;2.03;;
57047;SDS011;42934;54.294;18.598;2023-06-04T21:41:36;3.05;;;1.75;;
57047;SDS011;42934;54.294;18.598;2023-06-04T21:44:05;6.60;;;1.73;;
57047;SDS011;42934;54.294;18.598;2023-06-04T21:46:36;7.60;;;1.80;;
57047;SDS011;42934;54.294;18.598;2023-06-04T21:49:05;4.90;;;2.15;;
57047;SDS011;42934;54.294;18.598;2023-06-04T21:51:34;5.13;;;1.90;;
57047;SDS011;42934;54.294;18.598;2023-06-04T21:54:07;4.53;;;1.90;;
57047;SDS011;42934;54.294;18.598;2023-06-04T21:56:36;8.32;;;2.10;;
57047;SDS011;42934;54.294;18.598;2023-06-04T21:59:06;5.57;;;2.15;;
57047;SDS011;42934;54.294;18.598;2023-06-04T22:01:37;4.23;;;2.20;;
57047;SDS011;42934;54.294;18.598;2023-06-04T22:04:06;3.20;;;2.00;;
57047;SDS011;42934;54.294;18.598;2023-06-04T22:06:36;4.60;;;2.15;;
57047;SDS011;42934;54.294;18.598;2023-06-04T22:09:05;5.05;;;2.05;;
57047;SDS011;42934;54.294;18.598;2023-06-04T22:11:36;5.33;;;2.10;;
57047;SDS011;42934;54.294;18.598;2023-06-04T22:14:05;3.92;;;2.00;;
57047;SDS011;42934;54.294;18.598;2023-06-04T22:16:34;6.43;;;2.17;;
57047;SDS011;42934;54.294;18.598;2023-06-04T22:19:05;6.10;;;2.10;;
57047;SDS011;42934;54.294;18.598;2023-06-04T22:21:34;6.13;;;2.03;;
57047;SDS011;42934;54.294;18.598;2023-06-04T22:24:04;4.07;;;1.90;;
57047;SDS011;42934;54.294;18.598;2023-06-04T22:26:34;5.68;;;2.00;;
57047;SDS011;42934;54.294;18.598;2023-06-04T22:29:04;5.38;;;2.35;;
57047;SDS011;42934;54.294;18.598;2023-06-04T22:31:33;4.43;;;2.20;;
57047;SDS011;42934;54.294;18.598;2023-06-04T22:34:05;3.53;;;2.22;;
57047;SDS011;42934;54.294;18.598;2023-06-04T22:36:35;4.15;;;2.38;;
57047;SDS011;42934;54.294;18.598;2023-06-04T22:39:04;4.22;;;2.30;;
57047;SDS011;42934;54.294;18.598;2023-06-04T22:41:33;4.37;;;2.47;;
57047;SDS011;42934;54.294;18.598;2023-06-04T22:44:02;3.30;;;1.95;;
57047;SDS011;42934;54.294;18.598;2023-06-04T22:46:32;4.63;;;2.00;;
57047;SDS011;42934;54.294;18.598;2023-06-04T22:49:01;5.20;;;2.10;;
57047;SDS011;42934;54.294;18.598;2023-06-04T22:51:32;3.45;;;1.77;;
57047;SDS011;42934;54.294;18.598;2023-06-04T22:54:01;3.25;;;2.13;;
57047;SDS011;42934;54.294;18.598;2023-06-04T22:56:31;3.50;;;1.95;;
57047;SDS011;42934;54.294;18.598;2023-06-04T22:59:00;4.43;;;1.88;;
57047;SDS011;42934;54.294;18.598;2023-06-04T23:01:29;3.63;;;2.20;;
57047;SDS011;42934;54.294;18.598;2023-06-04T23:03:58;5.75;;;1.95;;
57047;SDS011;42934;54.294;18.598;2023-06-04T23:06:29;4.28;;;2.10;;
57047;SDS011;42934;54.294;18.598;2023-06-04T23:08:59;4.45;;;2.00;;
57047;SDS011;42934;54.294;18.598;2023-06-04T23:11:29;3.40;;;1.90;;
57047;SDS011;42934;54.294;18.598;2023-06-04T23:13:58;2.35;;;1.60;;
57047;SDS011;42934;54.294;18.598;2023-06-04T23:16:27;3.55;;;2.28;;
57047;SDS011;42934;54.294;18.598;2023-06-04T23:18:57;3.22;;;1.70;;
57047;SDS011;42934;54.294;18.598;2023-06-04T23:21:26;4.88;;;2.00;;
57047;SDS011;42934;54.294;18.598;2023-06-04T23:23:55;3.85;;;1.90;;
57047;SDS011;42934;54.294;18.598;2023-06-04T23:26:26;3.25;;;1.70;;
57047;SDS011;42934;54.294;18.598;2023-06-04T23:28:55;4.90;;;2.10;;
57047;SDS011;42934;54.294;18.598;2023-06-04T23:31:25;4.13;;;1.80;;
57047;SDS011;42934;54.294;18.598;2023-06-04T23:33:54;2.38;;;1.75;;
57047;SDS011;42934;54.294;18.598;2023-06-04T23:36:23;3.45;;;1.75;;
57047;SDS011;42934;54.294;18.598;2023-06-04T23:38:52;3.92;;;2.10;;
57047;SDS011;42934;54.294;18.598;2023-06-04T23:41:22;2.63;;;1.57;;
57047;SDS011;42934;54.294;18.598;2023-06-04T23:43:52;3.45;;;1.90;;
57047;SDS011;42934;54.294;18.598;2023-06-04T23:46:22;2.92;;;1.67;;
57047;SDS011;42934;54.294;18.598;2023-06-04T23:48:51;4.27;;;2.00;;
57047;SDS011;42934;54.294;18.598;2023-06-04T23:51:20;4.40;;;2.13;;
57047;SDS011;42934;54.294;18.598;2023-06-04T23:53:49;2.50;;;1.70;;
57047;SDS011;42934;54.294;18.598;2023-06-04T23:56:19;5.28;;;1.77;;
57047;SDS011;42934;54.294;18.598;2023-06-04T23:58:48;4.32;;;1.80;;
